sensor_id;sensor_type;location;lat;lon;timestamp;P1;durP1;ratioP1;P2;durP2;ratioP2
68353;SDS011;55274;43.060;25.618;2023-06-04T06:16:43;3.22;;;1.90;;
68353;SDS011;55274;43.060;25.618;2023-06-04T06:22:31;2.97;;;2.15;;
68353;SDS011;55274;43.060;25.618;2023-06-04T06:25:41;12.57;;;4.03;;
68353;SDS011;55274;43.060;25.618;2023-06-04T07:25:04;4.95;;;2.30;;
68353;SDS011;55274;43.060;25.618;2023-06-04T07:27:38;7.05;;;2.83;;
68353;SDS011;55274;43.060;25.618;2023-06-04T07:30:05;5.88;;;2.15;;
68353;SDS011;55274;43.060;25.618;2023-06-04T07:32:32;7.97;;;2.50;;
68353;SDS011;55274;43.060;25.618;2023-06-04T07:34:57;4.65;;;2.25;;
68353;SDS011;55274;43.060;25.618;2023-06-04T07:37:23;8.05;;;2.92;;
68353;SDS011;55274;43.060;25.618;2023-06-04T07:39:51;6.65;;;2.65;;
68353;SDS011;55274;43.060;25.618;2023-06-04T07:42:17;6.10;;;2.20;;
68353;SDS011;55274;43.060;25.618;2023-06-04T07:44:43;6.00;;;2.33;;
68353;SDS011;55274;43.060;25.618;2023-06-04T07:47:09;4.90;;;2.72;;
68353;SDS011;55274;43.060;25.618;2023-06-04T07:49:35;4.80;;;2.13;;
68353;SDS011;55274;43.060;25.618;2023-06-04T07:52:01;10.88;;;2.92;;
68353;SDS011;55274;43.060;25.618;2023-06-04T07:54:26;6.50;;;2.33;;
68353;SDS011;55274;43.060;25.618;2023-06-04T07:56:52;9.13;;;2.70;;
68353;SDS011;55274;43.060;25.618;2023-06-04T07:59:23;7.53;;;2.60;;
68353;SDS011;55274;43.060;25.618;2023-06-04T08:01:50;20.48;;;2.95;;
68353;SDS011;55274;43.060;25.618;2023-06-04T08:04:18;13.90;;;2.65;;
68353;SDS011;55274;43.060;25.618;2023-06-04T08:06:44;7.03;;;2.92;;
68353;SDS011;55274;43.060;25.618;2023-06-04T08:09:11;8.43;;;2.45;;
68353;SDS011;55274;43.060;25.618;2023-06-04T08:11:39;3.70;;;2.10;;
68353;SDS011;55274;43.060;25.618;2023-06-04T08:14:06;5.65;;;2.45;;
68353;SDS011;55274;43.060;25.618;2023-06-04T08:16:32;15.85;;;2.70;;
68353;SDS011;55274;43.060;25.618;2023-06-04T08:18:57;8.52;;;2.50;;
68353;SDS011;55274;43.060;25.618;2023-06-04T08:21:27;6.40;;;2.40;;
68353;SDS011;55274;43.060;25.618;2023-06-04T08:23:54;4.20;;;2.38;;
68353;SDS011;55274;43.060;25.618;2023-06-04T08:26:20;4.10;;;2.33;;
68353;SDS011;55274;43.060;25.618;2023-06-04T08:28:50;3.33;;;2.10;;
68353;SDS011;55274;43.060;25.618;2023-06-04T08:31:16;6.63;;;2.40;;
68353;SDS011;55274;43.060;25.618;2023-06-04T08:33:42;7.95;;;2.70;;
68353;SDS011;55274;43.060;25.618;2023-06-04T08:36:11;16.73;;;3.05;;
68353;SDS011;55274;43.060;25.618;2023-06-04T08:38:37;5.43;;;2.30;;
68353;SDS011;55274;43.060;25.618;2023-06-04T08:41:16;6.38;;;2.40;;
68353;SDS011;55274;43.060;25.618;2023-06-04T08:43:48;4.38;;;2.35;;
68353;SDS011;55274;43.060;25.618;2023-06-04T08:46:15;18.10;;;3.10;;
68353;SDS011;55274;43.060;25.618;2023-06-04T08:48:42;8.98;;;2.60;;
68353;SDS011;55274;43.060;25.618;2023-06-04T08:51:09;12.10;;;2.50;;
68353;SDS011;55274;43.060;25.618;2023-06-04T08:53:36;7.13;;;2.30;;
68353;SDS011;55274;43.060;25.618;2023-06-04T08:56:02;5.50;;;2.38;;
68353;SDS011;55274;43.060;25.618;2023-06-04T08:58:32;9.98;;;2.53;;
68353;SDS011;55274;43.060;25.618;2023-06-04T09:00:59;5.65;;;2.33;;
68353;SDS011;55274;43.060;25.618;2023-06-04T09:03:25;6.43;;;2.60;;
68353;SDS011;55274;43.060;25.618;2023-06-04T09:05:51;5.38;;;3.05;;
68353;SDS011;55274;43.060;25.618;2023-06-04T09:08:17;16.73;;;2.92;;
68353;SDS011;55274;43.060;25.618;2023-06-04T09:10:46;15.02;;;2.80;;
68353;SDS011;55274;43.060;25.618;2023-06-04T09:13:17;14.20;;;2.70;;
68353;SDS011;55274;43.060;25.618;2023-06-04T09:15:57;14.88;;;2.92;;
68353;SDS011;55274;43.060;25.618;2023-06-04T09:18:26;5.97;;;2.70;;
68353;SDS011;55274;43.060;25.618;2023-06-04T09:21:10;5.70;;;2.70;;
68353;SDS011;55274;43.060;25.618;2023-06-04T09:23:45;6.97;;;2.80;;
68353;SDS011;55274;43.060;25.618;2023-06-04T09:26:12;4.20;;;2.38;;
68353;SDS011;55274;43.060;25.618;2023-06-04T09:28:48;4.07;;;2.50;;
68353;SDS011;55274;43.060;25.618;2023-06-04T09:31:17;5.13;;;2.83;;
68353;SDS011;55274;43.060;25.618;2023-06-04T09:36:09;7.93;;;2.90;;
68353;SDS011;55274;43.060;25.618;2023-06-04T09:38:35;4.35;;;2.63;;
68353;SDS011;55274;43.060;25.618;2023-06-04T09:41:01;4.47;;;2.45;;
68353;SDS011;55274;43.060;25.618;2023-06-04T09:43:31;23.45;;;3.08;;
68353;SDS011;55274;43.060;25.618;2023-06-04T09:46:13;5.88;;;2.33;;
68353;SDS011;55274;43.060;25.618;2023-06-04T09:48:41;6.15;;;2.22;;
68353;SDS011;55274;43.060;25.618;2023-06-04T09:51:08;4.80;;;2.50;;
68353;SDS011;55274;43.060;25.618;2023-06-04T09:53:35;6.10;;;2.42;;
68353;SDS011;55274;43.060;25.618;2023-06-04T09:56:02;6.70;;;2.75;;
68353;SDS011;55274;43.060;25.618;2023-06-04T09:58:29;8.48;;;2.25;;
68353;SDS011;55274;43.060;25.618;2023-06-04T10:00:55;4.93;;;2.40;;
68353;SDS011;55274;43.060;25.618;2023-06-04T10:03:29;4.15;;;2.10;;
68353;SDS011;55274;43.060;25.618;2023-06-04T10:05:58;3.20;;;2.10;;
68353;SDS011;55274;43.060;25.618;2023-06-04T10:08:25;4.07;;;2.25;;
68353;SDS011;55274;43.060;25.618;2023-06-04T10:10:56;12.38;;;2.90;;
68353;SDS011;55274;43.060;25.618;2023-06-04T10:13:26;6.22;;;2.03;;
68353;SDS011;55274;43.060;25.618;2023-06-04T10:15:56;3.72;;;2.30;;
68353;SDS011;55274;43.060;25.618;2023-06-04T10:18:24;14.82;;;2.92;;
68353;SDS011;55274;43.060;25.618;2023-06-04T10:20:52;4.88;;;2.17;;
68353;SDS011;55274;43.060;25.618;2023-06-04T10:23:20;5.70;;;2.20;;
68353;SDS011;55274;43.060;25.618;2023-06-04T10:25:49;21.00;;;3.13;;
68353;SDS011;55274;43.060;25.618;2023-06-04T10:28:17;12.45;;;2.55;;
68353;SDS011;55274;43.060;25.618;2023-06-04T10:30:45;7.07;;;2.38;;
68353;SDS011;55274;43.060;25.618;2023-06-04T10:33:11;4.22;;;2.47;;
68353;SDS011;55274;43.060;25.618;2023-06-04T10:35:38;3.80;;;2.00;;
68353;SDS011;55274;43.060;25.618;2023-06-04T10:38:13;5.07;;;2.40;;
68353;SDS011;55274;43.060;25.618;2023-06-04T10:40:41;5.95;;;1.80;;
68353;SDS011;55274;43.060;25.618;2023-06-04T10:43:08;9.52;;;2.20;;
68353;SDS011;55274;43.060;25.618;2023-06-04T10:45:35;9.63;;;2.75;;
68353;SDS011;55274;43.060;25.618;2023-06-04T10:48:02;5.78;;;2.22;;
68353;SDS011;55274;43.060;25.618;2023-06-04T10:50:29;5.32;;;2.50;;
68353;SDS011;55274;43.060;25.618;2023-06-04T10:52:55;5.45;;;2.10;;
68353;SDS011;55274;43.060;25.618;2023-06-04T10:55:23;5.40;;;2.15;;
68353;SDS011;55274;43.060;25.618;2023-06-04T10:57:56;18.05;;;2.65;;
68353;SDS011;55274;43.060;25.618;2023-06-04T11:00:39;6.53;;;2.20;;
68353;SDS011;55274;43.060;25.618;2023-06-04T11:03:14;4.13;;;1.98;;
68353;SDS011;55274;43.060;25.618;2023-06-04T11:05:40;11.98;;;2.13;;
68353;SDS011;55274;43.060;25.618;2023-06-04T11:08:07;4.50;;;2.13;;
68353;SDS011;55274;43.060;25.618;2023-06-04T11:10:42;3.72;;;1.80;;
68353;SDS011;55274;43.060;25.618;2023-06-04T11:13:09;7.25;;;2.38;;
68353;SDS011;55274;43.060;25.618;2023-06-04T11:15:44;6.05;;;2.22;;
68353;SDS011;55274;43.060;25.618;2023-06-04T11:18:15;26.58;;;3.60;;
68353;SDS011;55274;43.060;25.618;2023-06-04T11:20:41;4.95;;;1.90;;
68353;SDS011;55274;43.060;25.618;2023-06-04T11:23:08;8.68;;;2.40;;
68353;SDS011;55274;43.060;25.618;2023-06-04T11:25:36;9.18;;;2.05;;
68353;SDS011;55274;43.060;25.618;2023-06-04T11:28:02;11.88;;;2.25;;
68353;SDS011;55274;43.060;25.618;2023-06-04T11:30:28;4.63;;;2.15;;
68353;SDS011;55274;43.060;25.618;2023-06-04T11:33:03;8.35;;;2.67;;
68353;SDS011;55274;43.060;25.618;2023-06-04T11:35:30;16.98;;;2.70;;
68353;SDS011;55274;43.060;25.618;2023-06-04T11:37:57;21.30;;;2.95;;
68353;SDS011;55274;43.060;25.618;2023-06-04T11:40:23;6.13;;;2.33;;
68353;SDS011;55274;43.060;25.618;2023-06-04T11:42:51;5.63;;;2.22;;
68353;SDS011;55274;43.060;25.618;2023-06-04T11:45:18;4.43;;;2.13;;
68353;SDS011;55274;43.060;25.618;2023-06-04T11:47:49;5.15;;;1.90;;
68353;SDS011;55274;43.060;25.618;2023-06-04T11:50:18;19.98;;;2.70;;
68353;SDS011;55274;43.060;25.618;2023-06-04T11:52:45;3.83;;;2.05;;
68353;SDS011;55274;43.060;25.618;2023-06-04T11:55:12;5.45;;;2.20;;
68353;SDS011;55274;43.060;25.618;2023-06-04T11:57:38;5.32;;;2.10;;
68353;SDS011;55274;43.060;25.618;2023-06-04T12:00:05;9.02;;;1.90;;
68353;SDS011;55274;43.060;25.618;2023-06-04T12:02:39;7.82;;;2.50;;
68353;SDS011;55274;43.060;25.618;2023-06-04T12:05:21;9.23;;;2.85;;
68353;SDS011;55274;43.060;25.618;2023-06-04T12:07:48;7.22;;;2.25;;
68353;SDS011;55274;43.060;25.618;2023-06-04T12:10:21;4.60;;;1.90;;
68353;SDS011;55274;43.060;25.618;2023-06-04T12:12:53;4.20;;;2.20;;
68353;SDS011;55274;43.060;25.618;2023-06-04T12:15:20;7.38;;;1.92;;
68353;SDS011;55274;43.060;25.618;2023-06-04T12:17:53;15.38;;;2.30;;
68353;SDS011;55274;43.060;25.618;2023-06-04T12:20:40;3.08;;;1.67;;
68353;SDS011;55274;43.060;25.618;2023-06-04T12:23:07;6.15;;;2.30;;
68353;SDS011;55274;43.060;25.618;2023-06-04T12:25:33;4.57;;;2.08;;
68353;SDS011;55274;43.060;25.618;2023-06-04T12:28:02;3.83;;;2.00;;
68353;SDS011;55274;43.060;25.618;2023-06-04T12:30:39;5.00;;;2.10;;
68353;SDS011;55274;43.060;25.618;2023-06-04T12:33:05;5.28;;;2.10;;
68353;SDS011;55274;43.060;25.618;2023-06-04T12:35:31;5.30;;;2.20;;
68353;SDS011;55274;43.060;25.618;2023-06-04T12:37:56;6.22;;;2.13;;
68353;SDS011;55274;43.060;25.618;2023-06-04T12:40:22;10.23;;;2.22;;
68353;SDS011;55274;43.060;25.618;2023-06-04T12:42:51;5.15;;;2.75;;
68353;SDS011;55274;43.060;25.618;2023-06-04T12:45:16;4.55;;;2.13;;
68353;SDS011;55274;43.060;25.618;2023-06-04T12:47:42;2.90;;;1.95;;
68353;SDS011;55274;43.060;25.618;2023-06-04T12:50:08;5.35;;;2.10;;
68353;SDS011;55274;43.060;25.618;2023-06-04T12:52:34;5.47;;;2.00;;
68353;SDS011;55274;43.060;25.618;2023-06-04T12:55:00;6.63;;;2.35;;
68353;SDS011;55274;43.060;25.618;2023-06-04T12:57:26;7.00;;;2.22;;
68353;SDS011;55274;43.060;25.618;2023-06-04T12:59:52;4.35;;;2.05;;
68353;SDS011;55274;43.060;25.618;2023-06-04T13:02:17;10.23;;;2.13;;
68353;SDS011;55274;43.060;25.618;2023-06-04T13:04:43;9.35;;;2.50;;
68353;SDS011;55274;43.060;25.618;2023-06-04T13:07:11;6.72;;;1.80;;
68353;SDS011;55274;43.060;25.618;2023-06-04T13:09:37;2.63;;;1.73;;
68353;SDS011;55274;43.060;25.618;2023-06-04T13:12:03;3.80;;;1.90;;
68353;SDS011;55274;43.060;25.618;2023-06-04T13:14:31;7.80;;;2.20;;
68353;SDS011;55274;43.060;25.618;2023-06-04T13:16:58;2.83;;;1.90;;
68353;SDS011;55274;43.060;25.618;2023-06-04T13:19:25;7.47;;;2.13;;
68353;SDS011;55274;43.060;25.618;2023-06-04T13:21:50;8.60;;;2.40;;
68353;SDS011;55274;43.060;25.618;2023-06-04T13:24:16;11.32;;;2.30;;
68353;SDS011;55274;43.060;25.618;2023-06-04T13:26:42;8.55;;;2.72;;
68353;SDS011;55274;43.060;25.618;2023-06-04T13:29:08;4.18;;;2.20;;
68353;SDS011;55274;43.060;25.618;2023-06-04T13:31:34;4.18;;;1.90;;
68353;SDS011;55274;43.060;25.618;2023-06-04T13:34:00;4.55;;;2.20;;
68353;SDS011;55274;43.060;25.618;2023-06-04T13:36:25;4.32;;;2.08;;
68353;SDS011;55274;43.060;25.618;2023-06-04T13:38:51;7.50;;;2.08;;
68353;SDS011;55274;43.060;25.618;2023-06-04T13:41:20;16.90;;;3.30;;
68353;SDS011;55274;43.060;25.618;2023-06-04T13:43:46;8.00;;;1.88;;
68353;SDS011;55274;43.060;25.618;2023-06-04T13:46:12;10.10;;;2.65;;
68353;SDS011;55274;43.060;25.618;2023-06-04T13:48:37;6.50;;;1.75;;
68353;SDS011;55274;43.060;25.618;2023-06-04T13:51:03;5.43;;;2.30;;
68353;SDS011;55274;43.060;25.618;2023-06-04T13:53:29;7.45;;;1.83;;
68353;SDS011;55274;43.060;25.618;2023-06-04T13:55:55;3.70;;;1.92;;
68353;SDS011;55274;43.060;25.618;2023-06-04T13:58:23;5.43;;;1.90;;
68353;SDS011;55274;43.060;25.618;2023-06-04T14:00:50;3.85;;;2.00;;
68353;SDS011;55274;43.060;25.618;2023-06-04T14:03:16;10.57;;;1.80;;
68353;SDS011;55274;43.060;25.618;2023-06-04T14:05:42;7.32;;;2.35;;
68353;SDS011;55274;43.060;25.618;2023-06-04T14:08:07;24.92;;;3.15;;
68353;SDS011;55274;43.060;25.618;2023-06-04T14:10:33;8.30;;;2.50;;
68353;SDS011;55274;43.060;25.618;2023-06-04T14:13:01;3.30;;;1.90;;
68353;SDS011;55274;43.060;25.618;2023-06-04T14:15:27;10.57;;;2.55;;
68353;SDS011;55274;43.060;25.618;2023-06-04T14:17:53;7.10;;;2.28;;
68353;SDS011;55274;43.060;25.618;2023-06-04T14:20:19;7.80;;;2.78;;
68353;SDS011;55274;43.060;25.618;2023-06-04T14:22:45;3.63;;;2.25;;
68353;SDS011;55274;43.060;25.618;2023-06-04T14:25:10;11.93;;;2.22;;
68353;SDS011;55274;43.060;25.618;2023-06-04T14:27:36;6.38;;;2.13;;
68353;SDS011;55274;43.060;25.618;2023-06-04T14:30:03;12.27;;;2.58;;
68353;SDS011;55274;43.060;25.618;2023-06-04T14:32:29;10.63;;;2.30;;
68353;SDS011;55274;43.060;25.618;2023-06-04T14:34:55;5.95;;;1.95;;
68353;SDS011;55274;43.060;25.618;2023-06-04T14:37:21;5.80;;;2.08;;
68353;SDS011;55274;43.060;25.618;2023-06-04T14:39:47;4.55;;;2.05;;
68353;SDS011;55274;43.060;25.618;2023-06-04T14:42:13;3.33;;;2.00;;
68353;SDS011;55274;43.060;25.618;2023-06-04T14:44:39;5.63;;;2.60;;
68353;SDS011;55274;43.060;25.618;2023-06-04T14:47:05;4.78;;;2.40;;
68353;SDS011;55274;43.060;25.618;2023-06-04T14:49:31;5.13;;;2.30;;
68353;SDS011;55274;43.060;25.618;2023-06-04T14:51:57;6.18;;;2.85;;
68353;SDS011;55274;43.060;25.618;2023-06-04T14:54:22;7.40;;;2.63;;
68353;SDS011;55274;43.060;25.618;2023-06-04T14:56:48;9.25;;;3.05;;
68353;SDS011;55274;43.060;25.618;2023-06-04T14:59:14;7.03;;;3.03;;
68353;SDS011;55274;43.060;25.618;2023-06-04T15:01:40;4.88;;;2.95;;
68353;SDS011;55274;43.060;25.618;2023-06-04T15:04:07;6.82;;;2.47;;
68353;SDS011;55274;43.060;25.618;2023-06-04T15:06:33;7.82;;;3.08;;
68353;SDS011;55274;43.060;25.618;2023-06-04T15:08:59;12.88;;;5.68;;
68353;SDS011;55274;43.060;25.618;2023-06-04T15:11:25;11.93;;;4.63;;
68353;SDS011;55274;43.060;25.618;2023-06-04T15:13:54;7.35;;;3.40;;
68353;SDS011;55274;43.060;25.618;2023-06-04T15:16:20;6.45;;;2.80;;
68353;SDS011;55274;43.060;25.618;2023-06-04T15:18:46;6.05;;;2.78;;
68353;SDS011;55274;43.060;25.618;2023-06-04T15:21:12;4.13;;;2.20;;
68353;SDS011;55274;43.060;25.618;2023-06-04T15:23:38;6.20;;;2.40;;
68353;SDS011;55274;43.060;25.618;2023-06-04T15:26:05;4.80;;;2.28;;
68353;SDS011;55274;43.060;25.618;2023-06-04T15:28:31;8.55;;;2.65;;
68353;SDS011;55274;43.060;25.618;2023-06-04T15:30:56;6.95;;;2.45;;
68353;SDS011;55274;43.060;25.618;2023-06-04T15:33:22;3.17;;;2.15;;
68353;SDS011;55274;43.060;25.618;2023-06-04T15:35:48;10.32;;;2.90;;
68353;SDS011;55274;43.060;25.618;2023-06-04T15:38:14;5.00;;;2.20;;
68353;SDS011;55274;43.060;25.618;2023-06-04T15:40:40;10.25;;;3.92;;
68353;SDS011;55274;43.060;25.618;2023-06-04T15:43:06;10.77;;;2.72;;
68353;SDS011;55274;43.060;25.618;2023-06-04T15:45:32;7.00;;;2.97;;
68353;SDS011;55274;43.060;25.618;2023-06-04T15:47:58;16.02;;;3.83;;
68353;SDS011;55274;43.060;25.618;2023-06-04T15:50:24;5.75;;;2.60;;
68353;SDS011;55274;43.060;25.618;2023-06-04T15:52:49;5.45;;;2.40;;
68353;SDS011;55274;43.060;25.618;2023-06-04T15:55:15;6.30;;;2.40;;
68353;SDS011;55274;43.060;25.618;2023-06-04T15:57:41;5.32;;;2.50;;
68353;SDS011;55274;43.060;25.618;2023-06-04T16:00:07;12.95;;;2.65;;
68353;SDS011;55274;43.060;25.618;2023-06-04T16:02:34;5.93;;;2.63;;
68353;SDS011;55274;43.060;25.618;2023-06-04T16:05:00;6.40;;;2.55;;
68353;SDS011;55274;43.060;25.618;2023-06-04T16:07:25;10.23;;;3.30;;
68353;SDS011;55274;43.060;25.618;2023-06-04T16:09:51;6.97;;;3.03;;
68353;SDS011;55274;43.060;25.618;2023-06-04T16:12:17;8.77;;;3.80;;
68353;SDS011;55274;43.060;25.618;2023-06-04T16:14:43;15.93;;;5.20;;
68353;SDS011;55274;43.060;25.618;2023-06-04T16:17:09;16.40;;;5.03;;
68353;SDS011;55274;43.060;25.618;2023-06-04T16:19:35;10.15;;;4.40;;
68353;SDS011;55274;43.060;25.618;2023-06-04T16:22:00;9.20;;;3.28;;
68353;SDS011;55274;43.060;25.618;2023-06-04T16:24:26;9.27;;;3.13;;
68353;SDS011;55274;43.060;25.618;2023-06-04T16:26:52;7.90;;;3.53;;
68353;SDS011;55274;43.060;25.618;2023-06-04T16:29:18;7.53;;;2.80;;
68353;SDS011;55274;43.060;25.618;2023-06-04T16:31:44;5.20;;;2.40;;
68353;SDS011;55274;43.060;25.618;2023-06-04T16:34:09;5.05;;;3.05;;
68353;SDS011;55274;43.060;25.618;2023-06-04T16:36:35;7.10;;;2.78;;
68353;SDS011;55274;43.060;25.618;2023-06-04T16:39:02;4.93;;;2.70;;
68353;SDS011;55274;43.060;25.618;2023-06-04T16:41:29;8.43;;;3.03;;
68353;SDS011;55274;43.060;25.618;2023-06-04T16:43:55;5.72;;;3.00;;
68353;SDS011;55274;43.060;25.618;2023-06-04T16:46:21;6.18;;;3.17;;
68353;SDS011;55274;43.060;25.618;2023-06-04T16:48:47;7.05;;;3.55;;
68353;SDS011;55274;43.060;25.618;2023-06-04T16:51:13;5.03;;;2.90;;
68353;SDS011;55274;43.060;25.618;2023-06-04T16:53:39;8.23;;;3.45;;
68353;SDS011;55274;43.060;25.618;2023-06-04T16:56:05;7.22;;;2.80;;
68353;SDS011;55274;43.060;25.618;2023-06-04T16:58:31;8.02;;;2.97;;
68353;SDS011;55274;43.060;25.618;2023-06-04T17:00:59;6.13;;;2.80;;
68353;SDS011;55274;43.060;25.618;2023-06-04T17:03:25;5.22;;;2.55;;
68353;SDS011;55274;43.060;25.618;2023-06-04T17:05:51;6.10;;;2.58;;
68353;SDS011;55274;43.060;25.618;2023-06-04T17:08:16;3.72;;;2.50;;
68353;SDS011;55274;43.060;25.618;2023-06-04T17:10:42;4.20;;;2.10;;
68353;SDS011;55274;43.060;25.618;2023-06-04T17:13:08;4.50;;;3.08;;
68353;SDS011;55274;43.060;25.618;2023-06-04T17:15:34;5.53;;;3.10;;
68353;SDS011;55274;43.060;25.618;2023-06-04T17:18:00;4.85;;;2.58;;
68353;SDS011;55274;43.060;25.618;2023-06-04T17:20:27;11.60;;;3.45;;
68353;SDS011;55274;43.060;25.618;2023-06-04T17:22:53;7.53;;;2.80;;
68353;SDS011;55274;43.060;25.618;2023-06-04T17:25:29;6.97;;;2.90;;
68353;SDS011;55274;43.060;25.618;2023-06-04T17:27:55;6.03;;;2.90;;
68353;SDS011;55274;43.060;25.618;2023-06-04T17:30:22;6.88;;;2.88;;
68353;SDS011;55274;43.060;25.618;2023-06-04T17:32:51;6.53;;;3.17;;
68353;SDS011;55274;43.060;25.618;2023-06-04T17:35:17;10.38;;;3.67;;
68353;SDS011;55274;43.060;25.618;2023-06-04T17:37:43;7.38;;;3.30;;
68353;SDS011;55274;43.060;25.618;2023-06-04T17:40:09;5.82;;;2.88;;
68353;SDS011;55274;43.060;25.618;2023-06-04T17:42:35;6.78;;;2.97;;
68353;SDS011;55274;43.060;25.618;2023-06-04T17:45:02;7.55;;;3.33;;
68353;SDS011;55274;43.060;25.618;2023-06-04T17:47:32;6.47;;;3.35;;
68353;SDS011;55274;43.060;25.618;2023-06-04T17:49:59;6.70;;;3.13;;
68353;SDS011;55274;43.060;25.618;2023-06-04T17:52:26;10.00;;;3.40;;
68353;SDS011;55274;43.060;25.618;2023-06-04T17:54:52;8.48;;;3.88;;
68353;SDS011;55274;43.060;25.618;2023-06-04T17:57:18;6.90;;;3.25;;
68353;SDS011;55274;43.060;25.618;2023-06-04T17:59:44;7.30;;;3.20;;
68353;SDS011;55274;43.060;25.618;2023-06-04T18:02:09;6.38;;;2.78;;
68353;SDS011;55274;43.060;25.618;2023-06-04T18:04:35;5.40;;;2.88;;
68353;SDS011;55274;43.060;25.618;2023-06-04T18:07:02;8.60;;;3.10;;
68353;SDS011;55274;43.060;25.618;2023-06-04T18:09:28;7.65;;;3.20;;
68353;SDS011;55274;43.060;25.618;2023-06-04T18:11:54;5.97;;;3.25;;
68353;SDS011;55274;43.060;25.618;2023-06-04T18:14:20;6.28;;;2.83;;
68353;SDS011;55274;43.060;25.618;2023-06-04T18:16:46;8.38;;;3.10;;
68353;SDS011;55274;43.060;25.618;2023-06-04T18:19:11;6.80;;;3.38;;
68353;SDS011;55274;43.060;25.618;2023-06-04T18:21:38;5.03;;;2.92;;
68353;SDS011;55274;43.060;25.618;2023-06-04T18:24:04;7.80;;;3.03;;
68353;SDS011;55274;43.060;25.618;2023-06-04T18:26:30;5.22;;;3.00;;
68353;SDS011;55274;43.060;25.618;2023-06-04T18:28:55;4.05;;;2.78;;
68353;SDS011;55274;43.060;25.618;2023-06-04T18:31:21;5.28;;;3.00;;
68353;SDS011;55274;43.060;25.618;2023-06-04T18:33:51;5.93;;;3.10;;
68353;SDS011;55274;43.060;25.618;2023-06-04T18:36:17;5.05;;;3.72;;
68353;SDS011;55274;43.060;25.618;2023-06-04T18:38:44;6.25;;;3.17;;
68353;SDS011;55274;43.060;25.618;2023-06-04T18:41:10;13.52;;;3.67;;
68353;SDS011;55274;43.060;25.618;2023-06-04T18:43:39;7.20;;;3.20;;
68353;SDS011;55274;43.060;25.618;2023-06-04T18:46:05;7.05;;;3.10;;
68353;SDS011;55274;43.060;25.618;2023-06-04T18:48:31;6.28;;;2.65;;
68353;SDS011;55274;43.060;25.618;2023-06-04T18:50:56;13.45;;;3.10;;
68353;SDS011;55274;43.060;25.618;2023-06-04T18:53:22;5.20;;;2.90;;
68353;SDS011;55274;43.060;25.618;2023-06-04T18:55:48;7.18;;;3.17;;
68353;SDS011;55274;43.060;25.618;2023-06-04T18:58:14;5.88;;;2.72;;
68353;SDS011;55274;43.060;25.618;2023-06-04T19:00:40;6.57;;;3.00;;
68353;SDS011;55274;43.060;25.618;2023-06-04T19:03:05;4.97;;;3.10;;
68353;SDS011;55274;43.060;25.618;2023-06-04T19:05:31;19.42;;;4.50;;
68353;SDS011;55274;43.060;25.618;2023-06-04T19:07:57;13.75;;;3.80;;
68353;SDS011;55274;43.060;25.618;2023-06-04T19:10:23;6.97;;;3.03;;
68353;SDS011;55274;43.060;25.618;2023-06-04T19:12:49;6.20;;;2.83;;
68353;SDS011;55274;43.060;25.618;2023-06-04T19:15:14;10.32;;;3.55;;
68353;SDS011;55274;43.060;25.618;2023-06-04T19:17:42;9.23;;;3.78;;
68353;SDS011;55274;43.060;25.618;2023-06-04T19:20:08;8.57;;;3.00;;
68353;SDS011;55274;43.060;25.618;2023-06-04T19:22:37;11.07;;;3.65;;
68353;SDS011;55274;43.060;25.618;2023-06-04T19:25:14;6.90;;;3.38;;
68353;SDS011;55274;43.060;25.618;2023-06-04T19:27:42;7.15;;;3.67;;
68353;SDS011;55274;43.060;25.618;2023-06-04T19:30:08;8.57;;;2.97;;
68353;SDS011;55274;43.060;25.618;2023-06-04T19:32:35;10.32;;;3.70;;
68353;SDS011;55274;43.060;25.618;2023-06-04T19:35:01;8.98;;;3.15;;
68353;SDS011;55274;43.060;25.618;2023-06-04T19:37:27;9.20;;;3.28;;
68353;SDS011;55274;43.060;25.618;2023-06-04T19:39:54;7.10;;;3.10;;
68353;SDS011;55274;43.060;25.618;2023-06-04T19:42:20;7.03;;;3.30;;
68353;SDS011;55274;43.060;25.618;2023-06-04T19:44:48;7.63;;;3.22;;
68353;SDS011;55274;43.060;25.618;2023-06-04T19:47:14;7.05;;;3.10;;
68353;SDS011;55274;43.060;25.618;2023-06-04T19:49:40;6.82;;;3.50;;
68353;SDS011;55274;43.060;25.618;2023-06-04T19:52:06;7.07;;;3.75;;
68353;SDS011;55274;43.060;25.618;2023-06-04T19:54:34;7.35;;;3.38;;
68353;SDS011;55274;43.060;25.618;2023-06-04T19:57:00;8.13;;;3.70;;
68353;SDS011;55274;43.060;25.618;2023-06-04T19:59:29;6.25;;;3.53;;
68353;SDS011;55274;43.060;25.618;2023-06-04T20:01:58;5.30;;;3.17;;
68353;SDS011;55274;43.060;25.618;2023-06-04T20:04:55;8.00;;;3.22;;
68353;SDS011;55274;43.060;25.618;2023-06-04T20:07:24;6.70;;;3.60;;
68353;SDS011;55274;43.060;25.618;2023-06-04T20:09:57;9.32;;;3.67;;
68353;SDS011;55274;43.060;25.618;2023-06-04T20:12:23;9.85;;;3.85;;
68353;SDS011;55274;43.060;25.618;2023-06-04T20:14:49;9.15;;;3.38;;
68353;SDS011;55274;43.060;25.618;2023-06-04T20:17:15;6.65;;;3.63;;
68353;SDS011;55274;43.060;25.618;2023-06-04T20:19:41;9.07;;;3.85;;
68353;SDS011;55274;43.060;25.618;2023-06-04T20:22:08;13.65;;;3.83;;
68353;SDS011;55274;43.060;25.618;2023-06-04T20:24:41;8.60;;;4.32;;
68353;SDS011;55274;43.060;25.618;2023-06-04T20:27:07;7.65;;;4.35;;
68353;SDS011;55274;43.060;25.618;2023-06-04T20:29:36;6.75;;;4.05;;
68353;SDS011;55274;43.060;25.618;2023-06-04T20:32:26;10.70;;;3.90;;
68353;SDS011;55274;43.060;25.618;2023-06-04T20:34:57;6.90;;;3.67;;
68353;SDS011;55274;43.060;25.618;2023-06-04T20:37:25;7.25;;;3.40;;
68353;SDS011;55274;43.060;25.618;2023-06-04T20:39:54;10.07;;;4.35;;
68353;SDS011;55274;43.060;25.618;2023-06-04T20:42:20;8.50;;;4.00;;
68353;SDS011;55274;43.060;25.618;2023-06-04T20:44:49;6.57;;;3.80;;
68353;SDS011;55274;43.060;25.618;2023-06-04T20:47:27;6.90;;;3.38;;
68353;SDS011;55274;43.060;25.618;2023-06-04T20:49:53;7.43;;;3.70;;
68353;SDS011;55274;43.060;25.618;2023-06-04T20:52:19;8.05;;;4.00;;
68353;SDS011;55274;43.060;25.618;2023-06-04T20:54:51;8.93;;;4.00;;
68353;SDS011;55274;43.060;25.618;2023-06-04T20:57:27;9.35;;;3.42;;
68353;SDS011;55274;43.060;25.618;2023-06-04T20:59:58;10.52;;;4.10;;
68353;SDS011;55274;43.060;25.618;2023-06-04T21:02:53;9.63;;;4.03;;
68353;SDS011;55274;43.060;25.618;2023-06-04T21:05:22;9.32;;;4.03;;
68353;SDS011;55274;43.060;25.618;2023-06-04T21:07:50;11.75;;;3.75;;
68353;SDS011;55274;43.060;25.618;2023-06-04T21:10:31;8.38;;;3.40;;
68353;SDS011;55274;43.060;25.618;2023-06-04T21:13:16;5.95;;;3.58;;
68353;SDS011;55274;43.060;25.618;2023-06-04T21:15:46;8.88;;;3.67;;
68353;SDS011;55274;43.060;25.618;2023-06-04T21:18:20;10.45;;;4.13;;
68353;SDS011;55274;43.060;25.618;2023-06-04T21:20:51;9.35;;;4.00;;
68353;SDS011;55274;43.060;25.618;2023-06-04T21:23:23;10.63;;;4.43;;
68353;SDS011;55274;43.060;25.618;2023-06-04T21:25:52;9.43;;;3.78;;
68353;SDS011;55274;43.060;25.618;2023-06-04T21:28:25;7.57;;;4.20;;
68353;SDS011;55274;43.060;25.618;2023-06-04T21:31:07;10.27;;;3.83;;
68353;SDS011;55274;43.060;25.618;2023-06-04T21:34:16;8.75;;;3.60;;
68353;SDS011;55274;43.060;25.618;2023-06-04T21:37:20;11.55;;;3.97;;
68353;SDS011;55274;43.060;25.618;2023-06-04T21:42:48;8.48;;;3.60;;
68353;SDS011;55274;43.060;25.618;2023-06-04T21:46:05;6.95;;;3.67;;
68353;SDS011;55274;43.060;25.618;2023-06-04T23:07:26;10.13;;;4.28;;
68353;SDS011;55274;43.060;25.618;2023-06-04T23:09:54;9.38;;;4.82;;
68353;SDS011;55274;43.060;25.618;2023-06-04T23:12:20;10.10;;;4.80;;
68353;SDS011;55274;43.060;25.618;2023-06-04T23:14:46;10.85;;;4.78;;
68353;SDS011;55274;43.060;25.618;2023-06-04T23:17:15;9.05;;;4.78;;